TERMINUS DAM (TRM)

Elevation: 752' · KAWEAH R basin · Operator: US Army Corps of Engineers

Provisional data, subject to change.
Query executed Saturday at 23:59:21

Select a sensor type for a plot of data.
Note: Reservoir Flows are daily averages.

Earlier

Date RES ELE    STORAGE    RES CHG    TOC STO    ABV TOC    OUTFLOW    INFLOW    FNF    PPT INC    TEMP MN    TEMP MX    WINDLEN    EVP PAN   
 FEET   AF   AF   AF   AF   CFS   CFS   CFS   INCHES   DEG F   DEG F   MILES   INCHES  
11/11/2016 584.88 12052 -- 12000 52 32 44 44 0.00 57 91 95 0.16
11/12/2016 584.92 12070 -- 12000 70 32 43 43 0.00 15 27 90 0.12
11/13/2016 584.96 12088 -- 12000 88 32 43 43 0.00 12 26 88 0.12
11/14/2016 584.93 12073 -- 12000 73 39 33 33 0.00 11 27 96 0.13
11/15/2016 584.91 12064 -- 12000 64 38 36 36 0.00 11 25 97 0.12
11/16/2016 584.90 12061 -- 12000 61 32 32 32 0.00 7 18 69 0.06
11/17/2016 -- -- -- 12000 -- 28 -- 27 0.00 5 19 80 0.09
11/18/2016 584.89 12057 -- 12000 57 28 31 31 0.00 5 22 98 0.11
11/19/2016 584.91 12064 -- 12000 64 28 33 33 0.00 8 23 120 0.12
11/20/2016 584.93 12075 -- 12000 75 26 34 34 0.00 9 21 108 0.10
11/21/2016 585.06 12130 -- 12000 130 20 48 48 0.03 10 16 50 0.04
11/22/2016 585.24 12208 -- 12000 208 9 50 50 0.01 8 18 66 0.07
11/23/2016 585.40 12277 -- 12000 277 6 42 42 0.00 7 18 81 0.06
11/24/2016 585.55 12342 65 12000 342 5 39 39 0.00 6 18 96 0.08
11/25/2016 585.67 12394 52 12000 394 7 35 32 0.00 3 21 110 0.10
11/26/2016 585.93 12508 -- 12000 508 8 67 63 0.39 7 18 129 0.10
11/27/2016 586.23 12638 -- 12000 638 6 73 85 0.53 7 15 118 0.07
11/28/2016 586.49 12756 -- 12000 756 13 73 73 0.00 7 14 72 0.05
11/29/2016 586.70 12849 -- 12000 849 21 69 69 0.00 7 15 63 0.05
11/30/2016 586.91 12941 -- 12000 941 21 68 68 0.00 5 16 95 0.07
12/01/2016 587.10 13029 -- 12000 1029 21 66 66 0.00 6 11 69 0.04
12/02/2016 587.26 13102 -- 12000 1102 24 62 74 0.00 6 13 64 0.05
12/03/2016 587.44 13184 -- 12000 1184 23 65 67 0.00 3 14 87 0.06
12/04/2016 587.61 13260 -- 12000 1260 18 58 58 0.00 4 16 91 0.07
12/05/2016 587.80 13348 -- 12000 1348 18 63 63 0.00 5 16 70 0.06
12/06/2016 588.04 13462 -- 12000 1462 15 73 73 0.00 5 11 54 0.04
12/07/2016 588.28 13572 -- 12000 1572 8 65 65 0.06 6 12 57 0.04
12/08/2016 588.53 13687 -- 12000 1687 6 65 65 0.28 9 13 78 0.03
12/09/2016 589.06 13941 -- 12000 1941 6 136 -- 0.02 12 22 87 0.08
12/10/2016 -- -- -- -- -- -- -- -- -- -- -- -- --

Later | Latest

Warning! This data is preliminary and subject to revision.

Show TRM Map | Plot TRM Data | 1 Month TRM Data | Real-Time TRM Data | TRM Info